sensor_id;sensor_type;location;lat;lon;timestamp;P1;durP1;ratioP1;P2;durP2;ratioP2
42964;SDS011;28604;51.204;22.552;2023-08-24T00:01:10;14.50;;;8.18;;
42964;SDS011;28604;51.204;22.552;2023-08-24T00:03:39;14.93;;;8.02;;
42964;SDS011;28604;51.204;22.552;2023-08-24T00:06:05;14.75;;;7.18;;
42964;SDS011;28604;51.204;22.552;2023-08-24T00:08:31;12.77;;;7.10;;
42964;SDS011;28604;51.204;22.552;2023-08-24T00:10:57;16.48;;;7.72;;
42964;SDS011;28604;51.204;22.552;2023-08-24T00:13:24;19.08;;;7.82;;
42964;SDS011;28604;51.204;22.552;2023-08-24T00:15:50;15.63;;;7.47;;
42964;SDS011;28604;51.204;22.552;2023-08-24T00:18:18;17.10;;;8.32;;
42964;SDS011;28604;51.204;22.552;2023-08-24T00:20:46;15.77;;;7.47;;
42964;SDS011;28604;51.204;22.552;2023-08-24T00:23:13;18.02;;;7.82;;
42964;SDS011;28604;51.204;22.552;2023-08-24T00:25:39;11.68;;;7.70;;
42964;SDS011;28604;51.204;22.552;2023-08-24T00:28:06;11.75;;;8.00;;
42964;SDS011;28604;51.204;22.552;2023-08-24T00:30:32;15.50;;;7.05;;
42964;SDS011;28604;51.204;22.552;2023-08-24T00:32:58;12.38;;;7.35;;
42964;SDS011;28604;51.204;22.552;2023-08-24T00:35:24;15.65;;;7.60;;
42964;SDS011;28604;51.204;22.552;2023-08-24T00:37:51;15.20;;;8.10;;
42964;SDS011;28604;51.204;22.552;2023-08-24T00:40:17;11.85;;;7.68;;
42964;SDS011;28604;51.204;22.552;2023-08-24T00:42:44;15.43;;;7.10;;
42964;SDS011;28604;51.204;22.552;2023-08-24T00:45:13;17.13;;;7.82;;
42964;SDS011;28604;51.204;22.552;2023-08-24T00:47:41;11.15;;;7.07;;
42964;SDS011;28604;51.204;22.552;2023-08-24T00:50:10;13.82;;;7.40;;
42964;SDS011;28604;51.204;22.552;2023-08-24T00:52:40;11.68;;;6.70;;
42964;SDS011;28604;51.204;22.552;2023-08-24T00:55:07;13.85;;;8.15;;
42964;SDS011;28604;51.204;22.552;2023-08-24T00:57:35;11.90;;;7.95;;
42964;SDS011;28604;51.204;22.552;2023-08-24T01:00:03;9.63;;;7.18;;
42964;SDS011;28604;51.204;22.552;2023-08-24T01:02:31;10.52;;;6.88;;
42964;SDS011;28604;51.204;22.552;2023-08-24T01:04:58;12.18;;;7.50;;
42964;SDS011;28604;51.204;22.552;2023-08-24T01:07:24;16.52;;;6.97;;
42964;SDS011;28604;51.204;22.552;2023-08-24T01:09:51;13.50;;;6.65;;
42964;SDS011;28604;51.204;22.552;2023-08-24T01:12:33;10.85;;;6.28;;
42964;SDS011;28604;51.204;22.552;2023-08-24T01:15:24;10.00;;;6.13;;
42964;SDS011;28604;51.204;22.552;2023-08-24T01:18:05;12.18;;;6.50;;
42964;SDS011;28604;51.204;22.552;2023-08-24T01:20:36;13.05;;;5.40;;
42964;SDS011;28604;51.204;22.552;2023-08-24T01:25:51;8.63;;;5.90;;
42964;SDS011;28604;51.204;22.552;2023-08-24T01:28:19;8.65;;;5.80;;
42964;SDS011;28604;51.204;22.552;2023-08-24T01:30:47;9.57;;;6.13;;
42964;SDS011;28604;51.204;22.552;2023-08-24T01:33:13;12.50;;;6.00;;
42964;SDS011;28604;51.204;22.552;2023-08-24T01:35:40;14.35;;;6.05;;
42964;SDS011;28604;51.204;22.552;2023-08-24T01:38:07;10.82;;;5.85;;
42964;SDS011;28604;51.204;22.552;2023-08-24T01:43:16;9.05;;;5.22;;
42964;SDS011;28604;51.204;22.552;2023-08-24T01:45:44;16.40;;;6.22;;
42964;SDS011;28604;51.204;22.552;2023-08-24T01:48:11;7.63;;;5.10;;
42964;SDS011;28604;51.204;22.552;2023-08-24T01:50:38;8.65;;;4.60;;
42964;SDS011;28604;51.204;22.552;2023-08-24T01:53:05;8.00;;;5.63;;
42964;SDS011;28604;51.204;22.552;2023-08-24T01:55:31;17.33;;;5.70;;
42964;SDS011;28604;51.204;22.552;2023-08-24T01:57:57;12.13;;;6.60;;
42964;SDS011;28604;51.204;22.552;2023-08-24T02:00:23;10.27;;;6.72;;
42964;SDS011;28604;51.204;22.552;2023-08-24T02:02:50;15.15;;;7.22;;
42964;SDS011;28604;51.204;22.552;2023-08-24T02:05:16;14.27;;;7.30;;
42964;SDS011;28604;51.204;22.552;2023-08-24T02:07:42;10.35;;;7.13;;
42964;SDS011;28604;51.204;22.552;2023-08-24T02:10:08;14.90;;;7.95;;
42964;SDS011;28604;51.204;22.552;2023-08-24T02:12:34;11.98;;;7.05;;
42964;SDS011;28604;51.204;22.552;2023-08-24T02:15:00;17.23;;;6.97;;
42964;SDS011;28604;51.204;22.552;2023-08-24T02:17:26;11.52;;;5.90;;
42964;SDS011;28604;51.204;22.552;2023-08-24T02:19:52;9.30;;;7.07;;
42964;SDS011;28604;51.204;22.552;2023-08-24T02:22:18;10.70;;;6.53;;
42964;SDS011;28604;51.204;22.552;2023-08-24T02:24:44;9.35;;;6.80;;
42964;SDS011;28604;51.204;22.552;2023-08-24T02:27:10;12.05;;;6.78;;
42964;SDS011;28604;51.204;22.552;2023-08-24T02:32:15;12.13;;;6.38;;
42964;SDS011;28604;51.204;22.552;2023-08-24T02:34:41;8.40;;;5.78;;
42964;SDS011;28604;51.204;22.552;2023-08-24T02:37:07;11.20;;;6.05;;
42964;SDS011;28604;51.204;22.552;2023-08-24T02:39:33;12.63;;;6.22;;
42964;SDS011;28604;51.204;22.552;2023-08-24T02:41:59;12.50;;;6.25;;
42964;SDS011;28604;51.204;22.552;2023-08-24T02:44:24;9.45;;;5.90;;
42964;SDS011;28604;51.204;22.552;2023-08-24T02:46:53;9.43;;;6.30;;
42964;SDS011;28604;51.204;22.552;2023-08-24T02:49:19;10.75;;;5.63;;
42964;SDS011;28604;51.204;22.552;2023-08-24T02:51:46;7.72;;;5.25;;
42964;SDS011;28604;51.204;22.552;2023-08-24T02:54:12;10.13;;;6.38;;
42964;SDS011;28604;51.204;22.552;2023-08-24T02:56:38;11.50;;;6.57;;
42964;SDS011;28604;51.204;22.552;2023-08-24T02:59:04;12.18;;;5.75;;
42964;SDS011;28604;51.204;22.552;2023-08-24T03:01:30;12.73;;;5.68;;
42964;SDS011;28604;51.204;22.552;2023-08-24T03:03:56;7.75;;;6.03;;
42964;SDS011;28604;51.204;22.552;2023-08-24T03:06:24;19.10;;;7.43;;
42964;SDS011;28604;51.204;22.552;2023-08-24T03:08:49;10.50;;;6.40;;
42964;SDS011;28604;51.204;22.552;2023-08-24T03:11:16;16.63;;;6.00;;
42964;SDS011;28604;51.204;22.552;2023-08-24T03:13:41;9.27;;;5.82;;
42964;SDS011;28604;51.204;22.552;2023-08-24T03:16:08;7.88;;;5.60;;
42964;SDS011;28604;51.204;22.552;2023-08-24T03:18:35;12.75;;;6.22;;
42964;SDS011;28604;51.204;22.552;2023-08-24T03:21:03;10.20;;;5.75;;
42964;SDS011;28604;51.204;22.552;2023-08-24T03:23:31;8.93;;;5.60;;
42964;SDS011;28604;51.204;22.552;2023-08-24T03:25:58;13.52;;;6.07;;
42964;SDS011;28604;51.204;22.552;2023-08-24T03:28:24;7.10;;;5.30;;
42964;SDS011;28604;51.204;22.552;2023-08-24T03:30:51;10.82;;;5.72;;
42964;SDS011;28604;51.204;22.552;2023-08-24T03:33:17;6.78;;;6.05;;
42964;SDS011;28604;51.204;22.552;2023-08-24T03:35:44;11.65;;;5.80;;
42964;SDS011;28604;51.204;22.552;2023-08-24T03:38:10;11.60;;;6.18;;
42964;SDS011;28604;51.204;22.552;2023-08-24T03:40:37;10.10;;;5.53;;
42964;SDS011;28604;51.204;22.552;2023-08-24T03:43:03;9.07;;;5.47;;
42964;SDS011;28604;51.204;22.552;2023-08-24T03:45:29;10.85;;;5.45;;
42964;SDS011;28604;51.204;22.552;2023-08-24T03:47:55;10.73;;;5.53;;
42964;SDS011;28604;51.204;22.552;2023-08-24T03:50:21;11.60;;;5.80;;
42964;SDS011;28604;51.204;22.552;2023-08-24T03:52:48;8.10;;;6.10;;
42964;SDS011;28604;51.204;22.552;2023-08-24T03:55:17;12.88;;;5.57;;
42964;SDS011;28604;51.204;22.552;2023-08-24T03:57:43;14.27;;;5.90;;
42964;SDS011;28604;51.204;22.552;2023-08-24T04:00:09;6.95;;;4.75;;
42964;SDS011;28604;51.204;22.552;2023-08-24T04:02:40;7.60;;;4.95;;
42964;SDS011;28604;51.204;22.552;2023-08-24T04:05:16;12.45;;;6.10;;
42964;SDS011;28604;51.204;22.552;2023-08-24T04:07:43;10.13;;;6.30;;
42964;SDS011;28604;51.204;22.552;2023-08-24T04:10:09;14.43;;;6.47;;
42964;SDS011;28604;51.204;22.552;2023-08-24T04:12:35;9.73;;;5.80;;
42964;SDS011;28604;51.204;22.552;2023-08-24T04:15:01;8.88;;;5.65;;
42964;SDS011;28604;51.204;22.552;2023-08-24T04:17:28;11.95;;;6.03;;
42964;SDS011;28604;51.204;22.552;2023-08-24T04:19:54;15.50;;;6.80;;
42964;SDS011;28604;51.204;22.552;2023-08-24T04:22:19;13.10;;;6.20;;
42964;SDS011;28604;51.204;22.552;2023-08-24T04:24:46;12.27;;;6.43;;
42964;SDS011;28604;51.204;22.552;2023-08-24T04:27:11;15.68;;;6.97;;
42964;SDS011;28604;51.204;22.552;2023-08-24T04:32:14;12.77;;;5.93;;
42964;SDS011;28604;51.204;22.552;2023-08-24T04:34:40;9.98;;;6.05;;
42964;SDS011;28604;51.204;22.552;2023-08-24T04:37:06;10.00;;;6.32;;
42964;SDS011;28604;51.204;22.552;2023-08-24T04:39:32;9.95;;;5.82;;
42964;SDS011;28604;51.204;22.552;2023-08-24T04:41:58;6.93;;;5.38;;
42964;SDS011;28604;51.204;22.552;2023-08-24T04:44:24;11.43;;;5.65;;
42964;SDS011;28604;51.204;22.552;2023-08-24T04:46:50;8.77;;;5.57;;
42964;SDS011;28604;51.204;22.552;2023-08-24T04:49:16;13.02;;;5.22;;
42964;SDS011;28604;51.204;22.552;2023-08-24T04:51:42;8.13;;;5.18;;
42964;SDS011;28604;51.204;22.552;2023-08-24T04:54:08;8.73;;;5.55;;
42964;SDS011;28604;51.204;22.552;2023-08-24T04:56:35;8.73;;;5.20;;
42964;SDS011;28604;51.204;22.552;2023-08-24T04:59:01;7.82;;;5.70;;
42964;SDS011;28604;51.204;22.552;2023-08-24T05:01:28;8.60;;;5.30;;
42964;SDS011;28604;51.204;22.552;2023-08-24T05:03:57;7.55;;;5.25;;
42964;SDS011;28604;51.204;22.552;2023-08-24T05:06:23;7.68;;;5.18;;
42964;SDS011;28604;51.204;22.552;2023-08-24T05:08:49;10.02;;;5.57;;
42964;SDS011;28604;51.204;22.552;2023-08-24T05:11:19;8.02;;;5.15;;
42964;SDS011;28604;51.204;22.552;2023-08-24T05:13:46;9.70;;;5.75;;
42964;SDS011;28604;51.204;22.552;2023-08-24T05:16:12;13.13;;;5.45;;
42964;SDS011;28604;51.204;22.552;2023-08-24T05:18:39;7.05;;;5.22;;
42964;SDS011;28604;51.204;22.552;2023-08-24T05:21:05;6.90;;;5.30;;
42964;SDS011;28604;51.204;22.552;2023-08-24T05:23:32;11.77;;;5.53;;
42964;SDS011;28604;51.204;22.552;2023-08-24T05:25:58;9.63;;;5.10;;
42964;SDS011;28604;51.204;22.552;2023-08-24T05:28:26;5.75;;;5.10;;
42964;SDS011;28604;51.204;22.552;2023-08-24T05:30:52;6.60;;;4.93;;
42964;SDS011;28604;51.204;22.552;2023-08-24T05:33:19;5.82;;;4.72;;
42964;SDS011;28604;51.204;22.552;2023-08-24T05:35:47;9.52;;;5.47;;
42964;SDS011;28604;51.204;22.552;2023-08-24T05:38:14;7.72;;;6.07;;
42964;SDS011;28604;51.204;22.552;2023-08-24T05:40:41;7.53;;;5.07;;
42964;SDS011;28604;51.204;22.552;2023-08-24T05:43:08;11.95;;;5.63;;
42964;SDS011;28604;51.204;22.552;2023-08-24T05:45:35;9.95;;;5.55;;
42964;SDS011;28604;51.204;22.552;2023-08-24T05:48:01;7.10;;;5.13;;
42964;SDS011;28604;51.204;22.552;2023-08-24T05:50:27;5.80;;;4.63;;
42964;SDS011;28604;51.204;22.552;2023-08-24T05:52:53;9.70;;;4.53;;
42964;SDS011;28604;51.204;22.552;2023-08-24T05:55:19;6.30;;;4.72;;
42964;SDS011;28604;51.204;22.552;2023-08-24T05:57:45;6.93;;;5.35;;
42964;SDS011;28604;51.204;22.552;2023-08-24T06:00:12;14.65;;;5.18;;
42964;SDS011;28604;51.204;22.552;2023-08-24T06:02:39;7.47;;;5.50;;
42964;SDS011;28604;51.204;22.552;2023-08-24T06:05:05;6.22;;;5.13;;
42964;SDS011;28604;51.204;22.552;2023-08-24T06:07:33;8.32;;;4.45;;
42964;SDS011;28604;51.204;22.552;2023-08-24T06:09:59;10.52;;;3.83;;
42964;SDS011;28604;51.204;22.552;2023-08-24T06:12:25;5.15;;;4.07;;
42964;SDS011;28604;51.204;22.552;2023-08-24T06:14:51;5.05;;;4.20;;
42964;SDS011;28604;51.204;22.552;2023-08-24T06:17:17;7.95;;;4.63;;
42964;SDS011;28604;51.204;22.552;2023-08-24T06:19:43;8.40;;;4.32;;
42964;SDS011;28604;51.204;22.552;2023-08-24T06:22:09;4.05;;;3.65;;
42964;SDS011;28604;51.204;22.552;2023-08-24T06:24:35;7.13;;;3.85;;
42964;SDS011;28604;51.204;22.552;2023-08-24T06:27:01;7.45;;;3.92;;
42964;SDS011;28604;51.204;22.552;2023-08-24T06:29:28;4.63;;;3.80;;
42964;SDS011;28604;51.204;22.552;2023-08-24T06:31:54;6.70;;;2.97;;
42964;SDS011;28604;51.204;22.552;2023-08-24T06:34:20;5.95;;;3.55;;
42964;SDS011;28604;51.204;22.552;2023-08-24T06:36:47;8.68;;;3.08;;
42964;SDS011;28604;51.204;22.552;2023-08-24T06:39:13;10.75;;;3.05;;
42964;SDS011;28604;51.204;22.552;2023-08-24T06:41:39;5.30;;;3.00;;
42964;SDS011;28604;51.204;22.552;2023-08-24T06:44:08;3.45;;;2.40;;
42964;SDS011;28604;51.204;22.552;2023-08-24T06:46:34;3.90;;;2.13;;
42964;SDS011;28604;51.204;22.552;2023-08-24T06:48:59;5.78;;;1.58;;
42964;SDS011;28604;51.204;22.552;2023-08-24T06:51:26;4.40;;;1.52;;
42964;SDS011;28604;51.204;22.552;2023-08-24T06:53:52;2.38;;;0.88;;
42964;SDS011;28604;51.204;22.552;2023-08-24T06:56:18;1.33;;;1.05;;
42964;SDS011;28604;51.204;22.552;2023-08-24T06:58:44;8.05;;;1.15;;
42964;SDS011;28604;51.204;22.552;2023-08-24T07:01:11;3.00;;;1.23;;
42964;SDS011;28604;51.204;22.552;2023-08-24T07:03:37;2.00;;;0.70;;
42964;SDS011;28604;51.204;22.552;2023-08-24T07:06:05;2.60;;;0.63;;
42964;SDS011;28604;51.204;22.552;2023-08-24T07:08:32;1.27;;;0.90;;
42964;SDS011;28604;51.204;22.552;2023-08-24T07:11:00;2.03;;;1.40;;
42964;SDS011;28604;51.204;22.552;2023-08-24T07:13:27;2.85;;;1.50;;
42964;SDS011;28604;51.204;22.552;2023-08-24T07:15:53;1.80;;;1.15;;
42964;SDS011;28604;51.204;22.552;2023-08-24T07:18:20;5.68;;;1.00;;
42964;SDS011;28604;51.204;22.552;2023-08-24T07:20:46;1.75;;;0.80;;
42964;SDS011;28604;51.204;22.552;2023-08-24T07:23:12;1.65;;;1.00;;
42964;SDS011;28604;51.204;22.552;2023-08-24T07:25:38;3.40;;;1.10;;
42964;SDS011;28604;51.204;22.552;2023-08-24T07:28:04;4.40;;;0.80;;
42964;SDS011;28604;51.204;22.552;2023-08-24T07:30:31;8.73;;;1.25;;
42964;SDS011;28604;51.204;22.552;2023-08-24T07:32:57;4.32;;;1.17;;
42964;SDS011;28604;51.204;22.552;2023-08-24T07:35:23;2.38;;;0.90;;
42964;SDS011;28604;51.204;22.552;2023-08-24T07:37:52;5.97;;;1.42;;
42964;SDS011;28604;51.204;22.552;2023-08-24T07:40:18;3.28;;;0.95;;
42964;SDS011;28604;51.204;22.552;2023-08-24T07:42:45;3.78;;;0.77;;
42964;SDS011;28604;51.204;22.552;2023-08-24T07:45:13;5.40;;;1.08;;
42964;SDS011;28604;51.204;22.552;2023-08-24T07:47:39;2.83;;;0.90;;
42964;SDS011;28604;51.204;22.552;2023-08-24T07:50:06;3.38;;;0.70;;
42964;SDS011;28604;51.204;22.552;2023-08-24T07:52:33;2.65;;;0.70;;
42964;SDS011;28604;51.204;22.552;2023-08-24T07:54:59;2.13;;;0.70;;
42964;SDS011;28604;51.204;22.552;2023-08-24T07:57:28;4.35;;;1.10;;
42964;SDS011;28604;51.204;22.552;2023-08-24T07:59:54;1.63;;;0.68;;
42964;SDS011;28604;51.204;22.552;2023-08-24T08:02:20;2.50;;;0.63;;
42964;SDS011;28604;51.204;22.552;2023-08-24T08:04:46;3.03;;;1.08;;
42964;SDS011;28604;51.204;22.552;2023-08-24T08:07:12;2.97;;;0.25;;
42964;SDS011;28604;51.204;22.552;2023-08-24T08:09:38;3.47;;;0.47;;
42964;SDS011;28604;51.204;22.552;2023-08-24T08:12:04;2.45;;;0.60;;
42964;SDS011;28604;51.204;22.552;2023-08-24T08:14:30;2.05;;;0.52;;
42964;SDS011;28604;51.204;22.552;2023-08-24T08:16:56;2.47;;;0.75;;
42964;SDS011;28604;51.204;22.552;2023-08-24T08:19:22;0.90;;;0.82;;
42964;SDS011;28604;51.204;22.552;2023-08-24T08:21:50;0.60;;;0.47;;
42964;SDS011;28604;51.204;22.552;2023-08-24T08:24:16;6.38;;;0.73;;
42964;SDS011;28604;51.204;22.552;2023-08-24T08:26:42;2.25;;;0.77;;
42964;SDS011;28604;51.204;22.552;2023-08-24T08:29:08;4.18;;;0.50;;
42964;SDS011;28604;51.204;22.552;2023-08-24T08:31:34;0.30;;;0.30;;
42964;SDS011;28604;51.204;22.552;2023-08-24T08:34:01;2.80;;;0.43;;
42964;SDS011;28604;51.204;22.552;2023-08-24T08:36:29;0.80;;;0.32;;
42964;SDS011;28604;51.204;22.552;2023-08-24T08:38:58;1.92;;;0.43;;
42964;SDS011;28604;51.204;22.552;2023-08-24T08:41:25;3.30;;;0.52;;
42964;SDS011;28604;51.204;22.552;2023-08-24T08:43:55;7.50;;;0.47;;
42964;SDS011;28604;51.204;22.552;2023-08-24T08:46:21;1.20;;;0.50;;
42964;SDS011;28604;51.204;22.552;2023-08-24T08:48:47;1.17;;;0.30;;
42964;SDS011;28604;51.204;22.552;2023-08-24T08:51:16;2.33;;;0.40;;
42964;SDS011;28604;51.204;22.552;2023-08-24T08:53:43;4.28;;;0.40;;
42964;SDS011;28604;51.204;22.552;2023-08-24T08:56:09;3.67;;;0.30;;
42964;SDS011;28604;51.204;22.552;2023-08-24T08:58:36;4.38;;;0.30;;
42964;SDS011;28604;51.204;22.552;2023-08-24T09:01:05;4.28;;;0.40;;
42964;SDS011;28604;51.204;22.552;2023-08-24T09:03:32;3.40;;;0.40;;
42964;SDS011;28604;51.204;22.552;2023-08-24T09:05:59;1.45;;;0.68;;
42964;SDS011;28604;51.204;22.552;2023-08-24T09:08:26;2.90;;;0.32;;
42964;SDS011;28604;51.204;22.552;2023-08-24T09:10:53;0.43;;;0.40;;
42964;SDS011;28604;51.204;22.552;2023-08-24T09:13:20;2.03;;;0.52;;
42964;SDS011;28604;51.204;22.552;2023-08-24T09:15:46;1.25;;;0.35;;
42964;SDS011;28604;51.204;22.552;2023-08-24T09:18:16;5.75;;;0.50;;
42964;SDS011;28604;51.204;22.552;2023-08-24T09:20:42;1.27;;;0.40;;
42964;SDS011;28604;51.204;22.552;2023-08-24T09:23:16;2.72;;;0.55;;
42964;SDS011;28604;51.204;22.552;2023-08-24T09:25:46;1.80;;;0.30;;
42964;SDS011;28604;51.204;22.552;2023-08-24T09:28:13;2.92;;;0.40;;
42964;SDS011;28604;51.204;22.552;2023-08-24T09:30:39;3.80;;;0.45;;
42964;SDS011;28604;51.204;22.552;2023-08-24T09:33:11;4.78;;;0.63;;
42964;SDS011;28604;51.204;22.552;2023-08-24T09:35:38;0.20;;;0.20;;
42964;SDS011;28604;51.204;22.552;2023-08-24T09:38:21;3.22;;;0.50;;
42964;SDS011;28604;51.204;22.552;2023-08-24T09:40:52;2.65;;;0.55;;
42964;SDS011;28604;51.204;22.552;2023-08-24T09:43:19;0.97;;;0.40;;
42964;SDS011;28604;51.204;22.552;2023-08-24T09:45:49;6.28;;;0.60;;
42964;SDS011;28604;51.204;22.552;2023-08-24T09:48:20;1.75;;;0.40;;
42964;SDS011;28604;51.204;22.552;2023-08-24T09:50:47;1.65;;;0.60;;
42964;SDS011;28604;51.204;22.552;2023-08-24T09:53:18;2.55;;;0.55;;
42964;SDS011;28604;51.204;22.552;2023-08-24T09:58:41;1.25;;;0.30;;
42964;SDS011;28604;51.204;22.552;2023-08-24T10:01:08;1.90;;;0.40;;
42964;SDS011;28604;51.204;22.552;2023-08-24T10:03:35;2.55;;;0.15;;
42964;SDS011;28604;51.204;22.552;2023-08-24T10:06:05;2.13;;;0.55;;
42964;SDS011;28604;51.204;22.552;2023-08-24T10:08:36;1.38;;;1.00;;
42964;SDS011;28604;51.204;22.552;2023-08-24T10:11:04;1.35;;;0.50;;
42964;SDS011;28604;51.204;22.552;2023-08-24T10:13:36;3.75;;;0.50;;
42964;SDS011;28604;51.204;22.552;2023-08-24T10:16:06;2.65;;;0.68;;
42964;SDS011;28604;51.204;22.552;2023-08-24T10:18:33;2.80;;;0.70;;
42964;SDS011;28604;51.204;22.552;2023-08-24T10:21:01;3.60;;;0.40;;
42964;SDS011;28604;51.204;22.552;2023-08-24T10:23:29;1.67;;;0.50;;
42964;SDS011;28604;51.204;22.552;2023-08-24T10:25:55;4.10;;;0.60;;
42964;SDS011;28604;51.204;22.552;2023-08-24T10:28:23;2.05;;;0.50;;
42964;SDS011;28604;51.204;22.552;2023-08-24T10:30:52;0.70;;;0.32;;
42964;SDS011;28604;51.204;22.552;2023-08-24T10:33:20;5.82;;;0.50;;
42964;SDS011;28604;51.204;22.552;2023-08-24T10:35:47;7.93;;;0.80;;
42964;SDS011;28604;51.204;22.552;2023-08-24T10:38:23;1.17;;;0.30;;
42964;SDS011;28604;51.204;22.552;2023-08-24T10:40:54;1.65;;;0.55;;
42964;SDS011;28604;51.204;22.552;2023-08-24T10:43:26;0.68;;;0.30;;
42964;SDS011;28604;51.204;22.552;2023-08-24T10:46:01;3.60;;;0.40;;
42964;SDS011;28604;51.204;22.552;2023-08-24T10:53:48;3.65;;;0.32;;
42964;SDS011;28604;51.204;22.552;2023-08-24T10:56:21;7.03;;;0.98;;
42964;SDS011;28604;51.204;22.552;2023-08-24T10:59:11;3.80;;;1.00;;
42964;SDS011;28604;51.204;22.552;2023-08-24T11:01:42;1.00;;;0.40;;
42964;SDS011;28604;51.204;22.552;2023-08-24T11:04:29;0.93;;;0.50;;
42964;SDS011;28604;51.204;22.552;2023-08-24T11:06:56;2.08;;;0.40;;
42964;SDS011;28604;51.204;22.552;2023-08-24T11:09:24;2.70;;;0.57;;
42964;SDS011;28604;51.204;22.552;2023-08-24T11:11:57;3.65;;;1.08;;
42964;SDS011;28604;51.204;22.552;2023-08-24T11:14:25;2.83;;;0.65;;
42964;SDS011;28604;51.204;22.552;2023-08-24T11:16:52;1.70;;;0.55;;
42964;SDS011;28604;51.204;22.552;2023-08-24T11:19:19;3.38;;;0.90;;
42964;SDS011;28604;51.204;22.552;2023-08-24T11:21:45;3.40;;;0.65;;
42964;SDS011;28604;51.204;22.552;2023-08-24T11:24:12;2.35;;;0.60;;
42964;SDS011;28604;51.204;22.552;2023-08-24T11:26:42;3.67;;;0.52;;
42964;SDS011;28604;51.204;22.552;2023-08-24T11:29:10;3.65;;;0.68;;
42964;SDS011;28604;51.204;22.552;2023-08-24T11:31:36;2.70;;;0.60;;
42964;SDS011;28604;51.204;22.552;2023-08-24T11:34:03;2.67;;;0.70;;
42964;SDS011;28604;51.204;22.552;2023-08-24T11:36:30;3.30;;;0.77;;
42964;SDS011;28604;51.204;22.552;2023-08-24T11:38:57;0.70;;;0.70;;
42964;SDS011;28604;51.204;22.552;2023-08-24T11:41:25;2.33;;;0.73;;
42964;SDS011;28604;51.204;22.552;2023-08-24T11:43:58;7.35;;;0.75;;
42964;SDS011;28604;51.204;22.552;2023-08-24T11:46:25;132.13;;;6.72;;
42964;SDS011;28604;51.204;22.552;2023-08-24T11:48:55;0.73;;;0.52;;
42964;SDS011;28604;51.204;22.552;2023-08-24T11:51:21;2.20;;;0.80;;
42964;SDS011;28604;51.204;22.552;2023-08-24T11:53:47;5.82;;;0.75;;
42964;SDS011;28604;51.204;22.552;2023-08-24T11:56:14;2.53;;;0.68;;
42964;SDS011;28604;51.204;22.552;2023-08-24T11:58:42;3.30;;;0.60;;
42964;SDS011;28604;51.204;22.552;2023-08-24T12:01:12;0.82;;;0.77;;
42964;SDS011;28604;51.204;22.552;2023-08-24T12:03:39;3.10;;;0.60;;
42964;SDS011;28604;51.204;22.552;2023-08-24T12:06:12;4.70;;;0.90;;
42964;SDS011;28604;51.204;22.552;2023-08-24T12:08:43;5.93;;;0.75;;
42964;SDS011;28604;51.204;22.552;2023-08-24T12:11:16;0.70;;;0.60;;
42964;SDS011;28604;51.204;22.552;2023-08-24T12:13:47;0.47;;;0.47;;
42964;SDS011;28604;51.204;22.552;2023-08-24T12:16:17;2.13;;;0.77;;
42964;SDS011;28604;51.204;22.552;2023-08-24T12:18:54;2.60;;;0.95;;
42964;SDS011;28604;51.204;22.552;2023-08-24T12:21:29;1.55;;;0.57;;
42964;SDS011;28604;51.204;22.552;2023-08-24T12:26:26;2.28;;;0.75;;
42964;SDS011;28604;51.204;22.552;2023-08-24T12:28:55;1.33;;;0.47;;
42964;SDS011;28604;51.204;22.552;2023-08-24T12:31:28;0.75;;;0.50;;
42964;SDS011;28604;51.204;22.552;2023-08-24T12:34:07;2.25;;;0.82;;
42964;SDS011;28604;51.204;22.552;2023-08-24T12:36:36;3.70;;;0.60;;
42964;SDS011;28604;51.204;22.552;2023-08-24T12:39:07;2.30;;;0.90;;
42964;SDS011;28604;51.204;22.552;2023-08-24T12:41:35;2.72;;;0.52;;
42964;SDS011;28604;51.204;22.552;2023-08-24T12:44:01;1.55;;;0.73;;
42964;SDS011;28604;51.204;22.552;2023-08-24T12:46:31;1.92;;;0.73;;
42964;SDS011;28604;51.204;22.552;2023-08-24T12:48:57;1.30;;;0.50;;
42964;SDS011;28604;51.204;22.552;2023-08-24T12:51:24;5.97;;;0.77;;
42964;SDS011;28604;51.204;22.552;2023-08-24T12:53:50;2.53;;;0.70;;
42964;SDS011;28604;51.204;22.552;2023-08-24T12:56:16;0.98;;;0.50;;
42964;SDS011;28604;51.204;22.552;2023-08-24T12:58:42;4.72;;;0.70;;
42964;SDS011;28604;51.204;22.552;2023-08-24T13:01:08;0.43;;;0.40;;
42964;SDS011;28604;51.204;22.552;2023-08-24T13:03:36;1.42;;;0.50;;
42964;SDS011;28604;51.204;22.552;2023-08-24T13:06:05;2.85;;;1.08;;
42964;SDS011;28604;51.204;22.552;2023-08-24T13:08:31;1.55;;;0.60;;
42964;SDS011;28604;51.204;22.552;2023-08-24T13:10:57;1.73;;;0.60;;
42964;SDS011;28604;51.204;22.552;2023-08-24T13:13:23;2.40;;;0.50;;
42964;SDS011;28604;51.204;22.552;2023-08-24T13:15:49;1.85;;;0.40;;
42964;SDS011;28604;51.204;22.552;2023-08-24T13:18:16;3.10;;;0.80;;
42964;SDS011;28604;51.204;22.552;2023-08-24T13:20:43;1.50;;;0.70;;
42964;SDS011;28604;51.204;22.552;2023-08-24T13:23:09;0.30;;;0.30;;
42964;SDS011;28604;51.204;22.552;2023-08-24T13:25:35;1.35;;;0.40;;
42964;SDS011;28604;51.204;22.552;2023-08-24T13:28:01;0.50;;;0.50;;
42964;SDS011;28604;51.204;22.552;2023-08-24T13:30:27;2.00;;;0.40;;
42964;SDS011;28604;51.204;22.552;2023-08-24T13:32:53;2.60;;;1.23;;
42964;SDS011;28604;51.204;22.552;2023-08-24T13:35:19;4.10;;;1.27;;
42964;SDS011;28604;51.204;22.552;2023-08-24T13:37:46;4.90;;;0.93;;
42964;SDS011;28604;51.204;22.552;2023-08-24T13:40:12;0.60;;;0.60;;
42964;SDS011;28604;51.204;22.552;2023-08-24T13:42:38;6.28;;;1.30;;
42964;SDS011;28604;51.204;22.552;2023-08-24T13:45:04;3.95;;;0.50;;
42964;SDS011;28604;51.204;22.552;2023-08-24T13:47:31;0.75;;;0.73;;
42964;SDS011;28604;51.204;22.552;2023-08-24T13:49:57;1.95;;;0.50;;
42964;SDS011;28604;51.204;22.552;2023-08-24T13:52:23;0.50;;;0.50;;
42964;SDS011;28604;51.204;22.552;2023-08-24T13:54:48;1.50;;;0.50;;
42964;SDS011;28604;51.204;22.552;2023-08-24T13:57:15;2.28;;;0.50;;
42964;SDS011;28604;51.204;22.552;2023-08-24T13:59:41;2.75;;;0.50;;
42964;SDS011;28604;51.204;22.552;2023-08-24T14:02:07;1.58;;;0.68;;
42964;SDS011;28604;51.204;22.552;2023-08-24T14:04:33;2.70;;;0.57;;
42964;SDS011;28604;51.204;22.552;2023-08-24T14:06:59;0.55;;;0.55;;
42964;SDS011;28604;51.204;22.552;2023-08-24T14:09:25;1.55;;;0.32;;
42964;SDS011;28604;51.204;22.552;2023-08-24T14:11:51;0.65;;;0.65;;
42964;SDS011;28604;51.204;22.552;2023-08-24T14:14:17;1.27;;;0.70;;
42964;SDS011;28604;51.204;22.552;2023-08-24T14:16:43;2.72;;;0.75;;
42964;SDS011;28604;51.204;22.552;2023-08-24T14:19:09;0.90;;;0.57;;
42964;SDS011;28604;51.204;22.552;2023-08-24T14:21:35;2.03;;;0.70;;
42964;SDS011;28604;51.204;22.552;2023-08-24T14:24:01;1.30;;;0.88;;
42964;SDS011;28604;51.204;22.552;2023-08-24T14:26:28;0.75;;;0.75;;
42964;SDS011;28604;51.204;22.552;2023-08-24T14:28:54;3.22;;;1.10;;
42964;SDS011;28604;51.204;22.552;2023-08-24T14:31:26;1.30;;;0.82;;
42964;SDS011;28604;51.204;22.552;2023-08-24T14:33:53;2.42;;;0.90;;
42964;SDS011;28604;51.204;22.552;2023-08-24T14:36:19;4.78;;;2.90;;
42964;SDS011;28604;51.204;22.552;2023-08-24T14:38:46;7.70;;;4.05;;
42964;SDS011;28604;51.204;22.552;2023-08-24T14:41:12;2.50;;;1.10;;
42964;SDS011;28604;51.204;22.552;2023-08-24T14:43:40;2.72;;;0.88;;
42964;SDS011;28604;51.204;22.552;2023-08-24T14:46:08;1.88;;;0.93;;
42964;SDS011;28604;51.204;22.552;2023-08-24T14:48:34;6.05;;;0.90;;
42964;SDS011;28604;51.204;22.552;2023-08-24T14:51:00;2.53;;;0.40;;
42964;SDS011;28604;51.204;22.552;2023-08-24T14:53:26;0.85;;;0.63;;